Eagle Tampa — S6NK6 — position and weather

sailwx.info

Track history (hours):
 
Tides and Currents Weather Stations Pressure Air Temp Water Temp Dewpoint Dewpoint Depression Visibility Wind Speed Wind Dir Waves Ship Positions

Eagle Tampa

Last reported at 2015-Jun-16 11:33 UTC. Time now 2015-Jun-30 21:26 UTC.
Position N 38°22' W 074°37'.
Warning: this ship's position is 14 days out of date.

Length 247 m; draft 8.5 m.

Type: Tanker. MMSI: 563936000.

Date/timePositionNaut miles runAvg speedWind from/ knotsBaromVisibWave heightAir tempDewpointWater temp
2015-Jun-16 11:33N 38°22' W 074°37'1313.3
2015-Jun-16 10:33N 38°32' W 074°48'1413.5
2015-Jun-16 09:33N 38°43' W 074°58'1111.3
2015-Jun-16 08:33N 38°53' W 075°05'1413.8
2015-Jun-16 07:33N 39°06' W 075°12'1515.2
2015-Jun-16 06:33N 39°18' W 075°23'1414.0
2015-Jun-16 05:34N 39°29' W 075°34'1010.0
2015-Jun-16 04:33N 39°39' W 075°33'9 9.0
2015-Jun-16 03:33N 39°47' W 075°27'3 3.2
2015-Jun-16 02:31N 39°49' W 075°23'0 0.0
2015-Jun-16 01:31N 39°49' W 075°23'0 0.2
2015-Jun-16 00:31N 39°49' W 075°23'0 0.2
2015-Jun-15 23:31N 39°49' W 075°24'0 0.0
2015-Jun-15 22:31N 39°49' W 075°24'0 0.0
2015-Jun-15 21:31N 39°49' W 075°24'0 0.0
2015-Jun-15 20:31N 39°49' W 075°24'0 0.1
2015-Jun-15 19:31N 39°49' W 075°24'0 0.1
2015-Jun-15 18:31N 39°49' W 075°23'0 0.2
2015-Jun-15 17:31N 39°49' W 075°23'0 0.0
2015-Jun-15 16:31N 39°49' W 075°23'0 0.0
2015-Jun-15 15:31N 39°49' W 075°23'0 0.0
2015-Jun-15 14:31N 39°49' W 075°23'0 0.0
2015-Jun-15 13:31N 39°49' W 075°23'0 0.2
2015-Jun-15 12:31N 39°49' W 075°23'0 0.2
2015-Jun-15 11:31N 39°49' W 075°24'0 0.0
2015-Jun-15 10:31N 39°49' W 075°24'0 0.0
2015-Jun-15 09:31N 39°49' W 075°24'0 0.0
2015-Jun-15 08:31N 39°49' W 075°24'0 0.0
2015-Jun-15 07:31N 39°49' W 075°24'0 0.1
2015-Jun-15 06:31N 39°49' W 075°24'0 0.2
2015-Jun-15 05:31N 39°49' W 075°23'0 0.1
2015-Jun-15 04:31N 39°49' W 075°23'0 0.0
2015-Jun-15 03:31N 39°49' W 075°23'0 0.0
2015-Jun-15 02:31N 39°49' W 075°23'0 0.0
2015-Jun-15 01:31N 39°49' W 075°23'0 0.0
2015-Jun-15 00:31N 39°49' W 075°23'0 0.1
2015-Jun-14 23:31N 39°49' W 075°24'0 0.3
2015-Jun-14 22:31N 39°49' W 075°24'0 0.0
2015-Jun-14 21:31N 39°49' W 075°24'0 0.0
2015-Jun-14 20:31N 39°49' W 075°24'0 0.0
2015-Jun-14 19:31N 39°49' W 075°24'0 0.0
2015-Jun-14 18:33N 39°49' W 075°24'1 0.9
2015-Jun-14 17:34N 39°49' W 075°23'5 5.2
2015-Jun-14 16:34N 39°51' W 075°16'0 0.1
2015-Jun-14 15:31N 39°51' W 075°16'0 0.0
2015-Jun-14 14:31N 39°51' W 075°16'0 0.0
2015-Jun-14 13:31N 39°51' W 075°16'0 0.0
2015-Jun-14 12:31N 39°51' W 075°16'0 0.0
2015-Jun-14 11:31N 39°51' W 075°16'0 0.0
2015-Jun-14 10:31N 39°51' W 075°16'0 0.0
2015-Jun-14 09:31N 39°51' W 075°16'0 0.0
2015-Jun-14 08:31N 39°51' W 075°16'0 0.0
2015-Jun-14 07:31N 39°51' W 075°16'0 0.0
2015-Jun-14 06:31N 39°51' W 075°16'0 0.0
2015-Jun-14 05:31N 39°51' W 075°16'0 0.0
2015-Jun-14 04:31N 39°51' W 075°16'0 0.0
2015-Jun-14 03:31N 39°51' W 075°16'0 0.0
2015-Jun-14 02:31N 39°51' W 075°16'0 0.0
2015-Jun-14 01:31N 39°51' W 075°16'0 0.0
2015-Jun-14 00:31N 39°51' W 075°16'0 0.0
2015-Jun-13 23:31N 39°51' W 075°16'0 0.0
2015-Jun-13 22:31N 39°51' W 075°16'0 0.0
2015-Jun-13 21:31N 39°51' W 075°16'0 0.0
2015-Jun-13 20:31N 39°51' W 075°16'0 0.0
2015-Jun-13 19:31N 39°51' W 075°16'0 0.0
2015-Jun-13 18:31N 39°51' W 075°16'0 0.0
2015-Jun-13 17:33N 39°51' W 075°16'3 3.0
2015-Jun-13 16:33N 39°51' W 075°20'9 9.4
2015-Jun-13 15:33N 39°45' W 075°30'10 9.7
2015-Jun-13 14:33N 39°36' W 075°34'1010.0
2015-Jun-13 13:33N 39°26' W 075°32'1212.4
2015-Jun-13 12:33N 39°17' W 075°21'1212.2
2015-Jun-13 11:33N 39°07' W 075°12'1212.2
2015-Jun-13 10:33N 38°55' W 075°06'10 9.6
2015-Jun-13 09:33N 38°47' W 075°01'6 6.1
2015-Jun-13 08:33N 38°43' W 074°55'17 3.1
2015-Jun-13 03:07N 38°31' W 074°39'0 0.1
2015-Jun-13 02:25N 38°31' W 074°39'0 0.0
2015-Jun-12 14:31N 38°31' W 074°39'0 0.1
2015-Jun-12 13:31N 38°31' W 074°39'0 0.0
2015-Jun-12 12:31N 38°31' W 074°39'0 0.1
2015-Jun-12 11:22N 38°31' W 074°39'0 0.1
2015-Jun-12 10:31N 38°31' W 074°39'0 0.0
2015-Jun-12 06:19N 38°31' W 074°40'0 0.0
2015-Jun-12 04:22N 38°31' W 074°39'0 0.2
2015-Jun-12 03:31N 38°31' W 074°39'4 4.1
2015-Jun-12 02:33N 38°28' W 074°37'  
2015-Jun-08 21:33N 26°21' W 079°27'1615.6
2015-Jun-08 20:33N 26°06' W 079°29'1515.2
2015-Jun-08 19:33N 25°50' W 079°30'  
Track history (hours):
 
Tides and Currents Weather Stations Pressure Air Temp Water Temp Dewpoint Dewpoint Depression Visibility Wind Speed Wind Dir Waves Ship Positions

Eagle Tampa

Last reported at 2015-Jun-16 11:33 UTC. Time now 2015-Jun-30 21:26 UTC.
Position N 38°22' W 074°37'.
Warning: this ship's position is 14 days out of date.

Length 247 m; draft 8.5 m.

Type: Tanker. MMSI: 563936000.

Date/timePositionNaut miles runAvg speedWind from/ knotsBaromVisibWave heightAir tempDewpointWater temp
2015-Jun-16 11:33N 38°22' W 074°37'1313.3
2015-Jun-16 10:33N 38°32' W 074°48'1413.5
2015-Jun-16 09:33N 38°43' W 074°58'1111.3
2015-Jun-16 08:33N 38°53' W 075°05'1413.8
2015-Jun-16 07:33N 39°06' W 075°12'1515.2
2015-Jun-16 06:33N 39°18' W 075°23'1414.0
2015-Jun-16 05:34N 39°29' W 075°34'1010.0
2015-Jun-16 04:33N 39°39' W 075°33'9 9.0
2015-Jun-16 03:33N 39°47' W 075°27'3 3.2
2015-Jun-16 02:31N 39°49' W 075°23'0 0.0
2015-Jun-16 01:31N 39°49' W 075°23'0 0.2
2015-Jun-16 00:31N 39°49' W 075°23'0 0.2
2015-Jun-15 23:31N 39°49' W 075°24'0 0.0
2015-Jun-15 22:31N 39°49' W 075°24'0 0.0
2015-Jun-15 21:31N 39°49' W 075°24'0 0.0
2015-Jun-15 20:31N 39°49' W 075°24'0 0.1
2015-Jun-15 19:31N 39°49' W 075°24'0 0.1
2015-Jun-15 18:31N 39°49' W 075°23'0 0.2
2015-Jun-15 17:31N 39°49' W 075°23'0 0.0
2015-Jun-15 16:31N 39°49' W 075°23'0 0.0
2015-Jun-15 15:31N 39°49' W 075°23'0 0.0
2015-Jun-15 14:31N 39°49' W 075°23'0 0.0
2015-Jun-15 13:31N 39°49' W 075°23'0 0.2
2015-Jun-15 12:31N 39°49' W 075°23'0 0.2
2015-Jun-15 11:31N 39°49' W 075°24'0 0.0
2015-Jun-15 10:31N 39°49' W 075°24'0 0.0
2015-Jun-15 09:31N 39°49' W 075°24'0 0.0
2015-Jun-15 08:31N 39°49' W 075°24'0 0.0
2015-Jun-15 07:31N 39°49' W 075°24'0 0.1
2015-Jun-15 06:31N 39°49' W 075°24'0 0.2
2015-Jun-15 05:31N 39°49' W 075°23'0 0.1
2015-Jun-15 04:31N 39°49' W 075°23'0 0.0
2015-Jun-15 03:31N 39°49' W 075°23'0 0.0
2015-Jun-15 02:31N 39°49' W 075°23'0 0.0
2015-Jun-15 01:31N 39°49' W 075°23'0 0.0
2015-Jun-15 00:31N 39°49' W 075°23'0 0.1
2015-Jun-14 23:31N 39°49' W 075°24'0 0.3
2015-Jun-14 22:31N 39°49' W 075°24'0 0.0
2015-Jun-14 21:31N 39°49' W 075°24'0 0.0
2015-Jun-14 20:31N 39°49' W 075°24'0 0.0
2015-Jun-14 19:31N 39°49' W 075°24'0 0.0
2015-Jun-14 18:33N 39°49' W 075°24'1 0.9
2015-Jun-14 17:34N 39°49' W 075°23'5 5.2
2015-Jun-14 16:34N 39°51' W 075°16'0 0.1
2015-Jun-14 15:31N 39°51' W 075°16'0 0.0
2015-Jun-14 14:31N 39°51' W 075°16'0 0.0
2015-Jun-14 13:31N 39°51' W 075°16'0 0.0
2015-Jun-14 12:31N 39°51' W 075°16'0 0.0
2015-Jun-14 11:31N 39°51' W 075°16'0 0.0
2015-Jun-14 10:31N 39°51' W 075°16'0 0.0
2015-Jun-14 09:31N 39°51' W 075°16'0 0.0
2015-Jun-14 08:31N 39°51' W 075°16'0 0.0
2015-Jun-14 07:31N 39°51' W 075°16'0 0.0
2015-Jun-14 06:31N 39°51' W 075°16'0 0.0
2015-Jun-14 05:31N 39°51' W 075°16'0 0.0
2015-Jun-14 04:31N 39°51' W 075°16'0 0.0
2015-Jun-14 03:31N 39°51' W 075°16'0 0.0
2015-Jun-14 02:31N 39°51' W 075°16'0 0.0
2015-Jun-14 01:31N 39°51' W 075°16'0 0.0
2015-Jun-14 00:31N 39°51' W 075°16'0 0.0
2015-Jun-13 23:31N 39°51' W 075°16'0 0.0
2015-Jun-13 22:31N 39°51' W 075°16'0 0.0
2015-Jun-13 21:31N 39°51' W 075°16'0 0.0
2015-Jun-13 20:31N 39°51' W 075°16'0 0.0
2015-Jun-13 19:31N 39°51' W 075°16'0 0.0
2015-Jun-13 18:31N 39°51' W 075°16'0 0.0
2015-Jun-13 17:33N 39°51' W 075°16'3 3.0
2015-Jun-13 16:33N 39°51' W 075°20'9 9.4
2015-Jun-13 15:33N 39°45' W 075°30'10 9.7
2015-Jun-13 14:33N 39°36' W 075°34'1010.0
2015-Jun-13 13:33N 39°26' W 075°32'1212.4
2015-Jun-13 12:33N 39°17' W 075°21'1212.2
2015-Jun-13 11:33N 39°07' W 075°12'1212.2
2015-Jun-13 10:33N 38°55' W 075°06'10 9.6
2015-Jun-13 09:33N 38°47' W 075°01'6 6.1
2015-Jun-13 08:33N 38°43' W 074°55'17 3.1
2015-Jun-13 03:07N 38°31' W 074°39'0 0.1
2015-Jun-13 02:25N 38°31' W 074°39'0 0.0
2015-Jun-12 14:31N 38°31' W 074°39'0 0.1
2015-Jun-12 13:31N 38°31' W 074°39'0 0.0
2015-Jun-12 12:31N 38°31' W 074°39'0 0.1
2015-Jun-12 11:22N 38°31' W 074°39'0 0.1
2015-Jun-12 10:31N 38°31' W 074°39'0 0.0
2015-Jun-12 06:19N 38°31' W 074°40'0 0.0
2015-Jun-12 04:22N 38°31' W 074°39'0 0.2
2015-Jun-12 03:31N 38°31' W 074°39'4 4.1
2015-Jun-12 02:33N 38°28' W 074°37'  
2015-Jun-08 21:33N 26°21' W 079°27'1615.6
2015-Jun-08 20:33N 26°06' W 079°29'1515.2
2015-Jun-08 19:33N 25°50' W 079°30'  

Dump ship's entire track history